createdAt,value
2018-07-31T00:01:17.009Z,9.53
2018-07-31T00:03:45.799Z,9.73
2018-07-31T00:06:18.720Z,10.05
2018-07-31T00:08:48.299Z,10.30
2018-07-31T00:11:17.066Z,10.28
2018-07-31T00:13:46.217Z,9.93
2018-07-31T00:16:15.186Z,10.13
2018-07-31T00:18:44.106Z,10.13
2018-07-31T00:21:12.970Z,10.10
2018-07-31T00:23:41.694Z,9.70
2018-07-31T00:26:10.409Z,9.68
2018-07-31T00:28:39.283Z,9.63
2018-07-31T00:31:07.943Z,10.27
2018-07-31T00:33:36.693Z,11.50
2018-07-31T00:36:05.409Z,10.30
2018-07-31T00:38:34.155Z,9.98
2018-07-31T00:41:02.852Z,10.32
2018-07-31T00:43:31.601Z,10.35
2018-07-31T00:46:00.279Z,10.43
2018-07-31T00:48:28.984Z,10.68
2018-07-31T00:50:57.882Z,10.80
2018-07-31T00:53:26.791Z,10.70
2018-07-31T00:55:55.500Z,10.48
2018-07-31T00:58:24.169Z,10.60
2018-07-31T01:00:53.076Z,10.30
2018-07-31T01:03:21.846Z,10.55
2018-07-31T01:05:50.601Z,10.60
2018-07-31T01:08:19.324Z,10.43
2018-07-31T01:10:48.146Z,10.50
2018-07-31T01:13:17.047Z,11.00
2018-07-31T01:15:45.806Z,10.40
2018-07-31T01:18:14.479Z,10.67
2018-07-31T01:20:43.218Z,10.32
2018-07-31T01:23:12.025Z,10.53
2018-07-31T01:25:40.717Z,10.72
2018-07-31T01:28:09.521Z,10.90
2018-07-31T01:30:38.276Z,11.25
2018-07-31T01:33:06.876Z,10.72
2018-07-31T01:35:35.658Z,10.90
2018-07-31T01:38:04.446Z,10.58
2018-07-31T01:40:33.118Z,11.03
2018-07-31T01:43:01.942Z,10.78
2018-07-31T01:45:30.742Z,11.53
2018-07-31T01:47:59.471Z,11.73
2018-07-31T01:50:28.154Z,11.78
2018-07-31T01:52:56.845Z,11.33
2018-07-31T01:55:25.791Z,10.95
2018-07-31T01:57:54.455Z,11.08
2018-07-31T02:00:23.174Z,10.82
2018-07-31T02:02:51.907Z,11.10
2018-07-31T02:05:20.532Z,11.53
2018-07-31T02:07:49.313Z,11.08
2018-07-31T02:10:17.999Z,10.93
2018-07-31T02:12:46.613Z,10.60
2018-07-31T02:15:15.363Z,10.13
2018-07-31T02:17:44.039Z,10.82
2018-07-31T02:20:12.813Z,10.38
2018-07-31T02:22:41.590Z,10.85
2018-07-31T02:25:10.326Z,9.97
2018-07-31T02:27:39.080Z,10.50
2018-07-31T02:30:09.095Z,10.55
2018-07-31T02:32:38.681Z,11.00
2018-07-31T02:35:07.504Z,11.83
2018-07-31T02:37:36.301Z,11.80
2018-07-31T02:40:05.442Z,12.00
2018-07-31T02:42:34.117Z,12.13
2018-07-31T02:45:02.839Z,12.28
2018-07-31T02:47:31.532Z,12.37
2018-07-31T02:50:00.229Z,12.58
2018-07-31T02:52:29.039Z,12.20
2018-07-31T02:54:57.834Z,11.78
2018-07-31T02:57:26.514Z,12.45
2018-07-31T02:59:55.322Z,12.20
2018-07-31T03:02:23.960Z,11.95
2018-07-31T03:04:52.697Z,12.78
2018-07-31T03:07:22.451Z,13.95
2018-07-31T03:09:51.245Z,12.70
2018-07-31T03:12:19.963Z,12.98
2018-07-31T03:14:48.645Z,12.88
2018-07-31T03:17:17.401Z,12.60
2018-07-31T03:19:46.625Z,12.65
2018-07-31T03:22:15.560Z,12.63
2018-07-31T03:24:44.224Z,12.78
2018-07-31T03:27:12.896Z,12.15
2018-07-31T03:29:42.150Z,11.60
2018-07-31T03:32:10.716Z,12.80
2018-07-31T03:34:39.465Z,13.08
2018-07-31T03:37:08.891Z,12.05
2018-07-31T03:39:37.561Z,11.88
2018-07-31T03:42:06.570Z,12.05
2018-07-31T03:44:35.487Z,12.47
2018-07-31T03:47:05.524Z,12.80
2018-07-31T03:49:34.209Z,12.45
2018-07-31T03:52:02.822Z,12.98
2018-07-31T03:54:32.048Z,12.80
2018-07-31T03:57:00.663Z,12.37
2018-07-31T03:59:29.582Z,12.20
2018-07-31T04:01:58.339Z,12.35
2018-07-31T04:04:27.162Z,12.68
2018-07-31T04:06:55.944Z,12.05
2018-07-31T04:09:24.735Z,11.73
2018-07-31T04:11:53.613Z,11.90
2018-07-31T04:14:22.351Z,11.40
2018-07-31T04:16:52.780Z,11.38
2018-07-31T04:19:21.452Z,11.13
2018-07-31T04:21:50.298Z,11.20
2018-07-31T04:24:19.006Z,11.50
2018-07-31T04:26:48.162Z,11.53
2018-07-31T04:29:16.797Z,11.12
2018-07-31T04:31:45.493Z,11.70
2018-07-31T04:34:14.160Z,11.60
2018-07-31T04:36:42.895Z,11.93
2018-07-31T04:39:14.518Z,12.50
2018-07-31T04:41:43.708Z,14.00
2018-07-31T04:44:12.344Z,12.85
2018-07-31T04:46:41.123Z,13.08
2018-07-31T04:49:10.132Z,13.20
2018-07-31T04:51:38.926Z,13.40
2018-07-31T04:54:07.478Z,13.40
2018-07-31T04:56:36.233Z,13.03
2018-07-31T04:59:05.080Z,13.20
2018-07-31T05:01:34.088Z,13.28
2018-07-31T05:04:02.967Z,13.78
2018-07-31T05:06:31.708Z,13.53
2018-07-31T05:09:01.200Z,14.07
2018-07-31T05:11:29.909Z,13.25
2018-07-31T05:13:58.770Z,13.38
2018-07-31T05:16:27.477Z,13.18
2018-07-31T05:18:56.235Z,13.08
2018-07-31T05:21:25.764Z,13.35
2018-07-31T05:23:55.436Z,15.70
2018-07-31T05:26:24.197Z,13.22
2018-07-31T05:28:53.104Z,13.58
2018-07-31T05:31:21.830Z,13.43
2018-07-31T05:33:50.515Z,13.60
2018-07-31T05:36:19.416Z,14.37
2018-07-31T05:38:48.200Z,14.43
2018-07-31T05:41:16.905Z,13.83
2018-07-31T05:43:45.763Z,13.10
2018-07-31T05:46:14.495Z,13.32
2018-07-31T05:48:43.476Z,11.80
2018-07-31T05:51:12.142Z,12.60
2018-07-31T05:53:40.766Z,12.33
2018-07-31T05:56:09.958Z,13.25
2018-07-31T05:58:39.398Z,13.20
2018-07-31T06:01:08.063Z,13.20
2018-07-31T06:03:36.888Z,12.37
2018-07-31T06:06:05.977Z,12.50
2018-07-31T06:08:34.887Z,12.90
2018-07-31T06:11:03.743Z,12.75
2018-07-31T06:13:32.666Z,12.83
2018-07-31T06:16:01.803Z,13.30
2018-07-31T06:18:30.538Z,13.70
2018-07-31T06:20:59.496Z,13.55
2018-07-31T06:23:28.253Z,15.70
2018-07-31T06:25:57.020Z,14.20
2018-07-31T06:28:26.505Z,14.63
2018-07-31T06:30:55.262Z,14.55
2018-07-31T06:33:24.082Z,14.18
2018-07-31T06:35:52.898Z,14.78
2018-07-31T06:38:21.697Z,15.33
2018-07-31T06:40:50.565Z,16.55
2018-07-31T06:43:19.250Z,17.07
2018-07-31T06:45:47.911Z,16.65
2018-07-31T06:48:18.504Z,17.60
2018-07-31T06:50:47.311Z,18.25
2018-07-31T06:53:16.085Z,19.40
2018-07-31T06:55:47.705Z,19.52
2018-07-31T06:58:17.292Z,20.00
2018-07-31T07:00:46.038Z,21.03
2018-07-31T07:03:15.785Z,21.60
2018-07-31T07:05:44.527Z,20.87
2018-07-31T07:08:13.275Z,21.07
2018-07-31T07:10:42.108Z,22.80
2018-07-31T07:13:11.180Z,24.47
2018-07-31T07:15:40.043Z,23.55
2018-07-31T07:18:08.770Z,23.47
2018-07-31T07:20:37.571Z,23.38
2018-07-31T07:23:06.520Z,22.93
2018-07-31T07:25:35.265Z,23.15
2018-07-31T07:28:04.059Z,22.40
2018-07-31T07:30:32.886Z,22.95
2018-07-31T07:33:03.394Z,24.50
2018-07-31T07:35:32.276Z,23.85
2018-07-31T07:38:01.151Z,24.45
2018-07-31T07:40:30.327Z,24.50
2018-07-31T07:42:59.065Z,24.65
2018-07-31T07:45:27.810Z,23.67
2018-07-31T07:47:56.613Z,24.27
2018-07-31T07:50:25.465Z,24.18
2018-07-31T07:52:54.151Z,25.47
2018-07-31T07:55:22.846Z,24.80
2018-07-31T07:57:51.694Z,24.77
2018-07-31T08:00:20.484Z,25.43
2018-07-31T08:02:49.273Z,25.65
2018-07-31T08:05:18.009Z,25.80
2018-07-31T08:07:46.690Z,25.85
2018-07-31T08:10:15.628Z,23.57
2018-07-31T08:12:44.438Z,23.27
2018-07-31T08:15:13.025Z,23.63
2018-07-31T08:17:41.833Z,21.10
2018-07-31T08:20:10.568Z,24.23
2018-07-31T08:22:39.409Z,25.23
2018-07-31T08:25:08.153Z,26.62
2018-07-31T08:27:36.929Z,23.07
2018-07-31T08:30:07.736Z,18.52
2018-07-31T08:32:36.440Z,16.90
2018-07-31T08:35:05.180Z,17.52
2018-07-31T08:37:33.947Z,13.30
2018-07-31T08:40:02.772Z,16.65
2018-07-31T08:42:31.463Z,15.45
2018-07-31T08:45:00.258Z,15.23
2018-07-31T08:47:29.004Z,15.23
2018-07-31T08:49:57.725Z,13.62
2018-07-31T08:52:26.432Z,13.00
2018-07-31T08:54:55.159Z,12.95
2018-07-31T08:57:23.805Z,12.93
2018-07-31T08:59:52.569Z,13.00
2018-07-31T09:02:21.365Z,14.10
2018-07-31T09:04:50.078Z,13.00
2018-07-31T09:07:18.828Z,12.90
2018-07-31T09:09:47.650Z,12.90
2018-07-31T09:12:16.396Z,12.58
2018-07-31T09:14:45.243Z,13.35
2018-07-31T09:17:13.966Z,13.33
2018-07-31T09:19:42.668Z,12.40
2018-07-31T09:22:12.952Z,12.55
2018-07-31T09:24:41.730Z,11.70
2018-07-31T09:27:10.464Z,11.43
2018-07-31T09:29:39.251Z,10.40
2018-07-31T09:32:08.002Z,11.40
2018-07-31T09:34:42.563Z,12.50
2018-07-31T09:37:11.240Z,11.08
2018-07-31T09:39:39.964Z,11.12
2018-07-31T09:42:08.658Z,10.83
2018-07-31T09:44:43.491Z,11.12
2018-07-31T09:47:22.846Z,11.10
2018-07-31T09:49:51.862Z,11.28
2018-07-31T09:52:20.640Z,11.35
2018-07-31T09:54:49.431Z,12.73
2018-07-31T09:57:18.359Z,11.55
2018-07-31T09:59:47.308Z,11.85
2018-07-31T10:02:21.453Z,11.70
2018-07-31T10:04:50.178Z,11.63
2018-07-31T10:07:18.964Z,11.80
2018-07-31T10:09:51.177Z,11.88
2018-07-31T10:12:21.133Z,11.13
2018-07-31T10:14:49.938Z,15.10
2018-07-31T10:17:18.817Z,11.83
2018-07-31T10:19:47.616Z,11.88
2018-07-31T10:22:16.359Z,11.95
2018-07-31T10:24:45.111Z,10.63
2018-07-31T10:27:13.924Z,9.85
2018-07-31T10:29:42.687Z,10.27
2018-07-31T10:32:11.477Z,11.33
2018-07-31T10:34:41.485Z,10.53
2018-07-31T10:37:11.631Z,10.55
2018-07-31T10:39:40.407Z,18.67
2018-07-31T10:42:09.074Z,9.10
2018-07-31T10:44:38.159Z,10.05
2018-07-31T10:47:07.106Z,10.90
2018-07-31T10:49:35.939Z,9.88
2018-07-31T10:52:04.882Z,9.50
2018-07-31T10:54:39.475Z,9.45
2018-07-31T10:57:08.299Z,8.83
2018-07-31T10:59:37.136Z,8.20
2018-07-31T11:02:05.963Z,7.00
2018-07-31T11:04:34.797Z,7.10
2018-07-31T11:07:03.522Z,7.27
2018-07-31T11:09:32.846Z,7.50
2018-07-31T11:12:02.989Z,7.28
2018-07-31T11:14:38.272Z,7.97
2018-07-31T11:17:12.557Z,6.83
2018-07-31T11:19:42.170Z,6.33
2018-07-31T11:22:10.805Z,6.50
2018-07-31T11:24:40.226Z,6.40
2018-07-31T11:27:08.885Z,6.62
2018-07-31T11:29:37.576Z,6.40
2018-07-31T11:32:07.139Z,6.58
2018-07-31T11:34:36.144Z,6.73
2018-07-31T11:37:04.981Z,6.33
2018-07-31T11:39:33.913Z,7.78
2018-07-31T11:42:02.862Z,7.10
2018-07-31T11:44:31.662Z,6.35
2018-07-31T11:47:00.449Z,5.55
2018-07-31T11:49:29.122Z,6.92
2018-07-31T11:52:03.491Z,6.92
2018-07-31T11:54:36.178Z,6.60
2018-07-31T11:57:05.217Z,6.80
2018-07-31T11:59:34.570Z,6.55
2018-07-31T12:02:03.399Z,6.12
2018-07-31T12:04:37.034Z,5.85
2018-07-31T12:07:07.498Z,5.22
2018-07-31T12:09:40.837Z,5.28
2018-07-31T12:12:09.776Z,5.70
2018-07-31T12:14:40.601Z,4.70
2018-07-31T12:17:09.569Z,4.60
2018-07-31T12:19:38.247Z,4.77
2018-07-31T12:22:12.191Z,4.30
2018-07-31T12:24:46.206Z,4.22
2018-07-31T12:27:15.228Z,4.60
2018-07-31T12:29:51.470Z,4.53
2018-07-31T12:32:29.627Z,6.33
2018-07-31T12:34:58.510Z,5.70
2018-07-31T12:37:31.950Z,4.17
2018-07-31T12:40:00.891Z,4.07
2018-07-31T12:42:29.580Z,4.40
2018-07-31T12:44:58.286Z,3.90
2018-07-31T12:47:27.708Z,4.12
2018-07-31T12:49:56.460Z,4.30
2018-07-31T12:52:25.181Z,3.92
2018-07-31T12:54:53.864Z,4.10
2018-07-31T12:57:22.585Z,4.78
2018-07-31T12:59:51.290Z,4.00
2018-07-31T13:02:20.126Z,3.53
2018-07-31T13:04:48.743Z,3.83
2018-07-31T13:07:17.462Z,3.87
2018-07-31T13:09:46.125Z,3.90
2018-07-31T13:12:22.724Z,4.00
2018-07-31T13:14:58.157Z,4.35
2018-07-31T13:17:33.360Z,4.00
2018-07-31T13:20:02.639Z,4.22
2018-07-31T13:22:37.726Z,4.30
2018-07-31T13:25:09.088Z,4.28
2018-07-31T13:27:37.834Z,4.50
2018-07-31T13:30:07.130Z,4.15
2018-07-31T13:32:36.056Z,3.87
2018-07-31T13:35:06.078Z,4.20
2018-07-31T13:37:34.774Z,4.12
2018-07-31T13:40:03.590Z,4.37
2018-07-31T13:42:32.356Z,4.30
2018-07-31T13:45:01.072Z,3.85
2018-07-31T13:47:30.240Z,3.67
2018-07-31T13:49:58.929Z,4.03
2018-07-31T13:52:27.658Z,4.33
2018-07-31T13:54:56.437Z,4.08
2018-07-31T13:57:25.252Z,4.25
2018-07-31T13:59:54.029Z,4.00
2018-07-31T14:02:22.744Z,4.08
2018-07-31T14:04:51.411Z,4.17
2018-07-31T14:07:20.161Z,3.98
2018-07-31T14:09:48.924Z,4.78
2018-07-31T14:12:17.597Z,4.92
2018-07-31T14:19:21.930Z,4.30
2018-07-31T14:21:50.608Z,4.55
2018-07-31T14:24:19.384Z,4.28
2018-07-31T14:26:48.162Z,4.33
2018-07-31T14:29:16.883Z,4.77
2018-07-31T14:31:45.682Z,4.83
2018-07-31T14:34:14.417Z,4.65
2018-07-31T14:36:43.255Z,4.90
2018-07-31T14:39:12.230Z,4.60
2018-07-31T14:41:40.980Z,4.50
2018-07-31T14:44:09.848Z,4.33
2018-07-31T14:46:39.076Z,4.53
2018-07-31T14:49:07.818Z,4.42
2018-07-31T14:51:37.540Z,4.50
2018-07-31T14:54:06.417Z,4.80
2018-07-31T14:56:35.161Z,4.50
2018-07-31T14:59:03.809Z,4.37
2018-07-31T15:01:32.491Z,4.12
2018-07-31T15:04:01.159Z,4.00
2018-07-31T15:06:30.253Z,4.50
2018-07-31T15:08:59.109Z,4.30
2018-07-31T15:11:27.881Z,4.33
2018-07-31T15:13:56.608Z,4.80
2018-07-31T15:16:25.456Z,4.30
2018-07-31T15:18:54.160Z,4.03
2018-07-31T15:21:22.945Z,4.45
2018-07-31T15:23:51.724Z,4.20
2018-07-31T15:26:21.782Z,4.30
2018-07-31T15:28:50.666Z,4.40
2018-07-31T15:31:19.350Z,4.35
2018-07-31T15:33:48.065Z,4.20
2018-07-31T15:36:16.801Z,4.40
2018-07-31T15:38:45.566Z,4.40
2018-07-31T15:41:18.616Z,4.67
2018-07-31T15:43:51.785Z,4.78
2018-07-31T15:46:20.762Z,4.65
2018-07-31T15:48:50.188Z,4.40
2018-07-31T15:51:18.901Z,4.60
2018-07-31T15:53:47.574Z,4.87
2018-07-31T15:56:16.318Z,5.45
2018-07-31T15:58:45.018Z,6.15
2018-07-31T16:01:13.685Z,6.37
2018-07-31T16:03:42.525Z,5.50
2018-07-31T16:06:11.684Z,5.20
2018-07-31T16:08:40.427Z,4.83
2018-07-31T16:11:09.142Z,4.87
2018-07-31T16:13:37.846Z,4.83
2018-07-31T16:16:07.684Z,5.10
2018-07-31T16:18:36.403Z,4.60
2018-07-31T16:21:05.753Z,4.70
2018-07-31T16:23:34.590Z,4.87
2018-07-31T16:26:03.391Z,4.70
2018-07-31T16:28:36.484Z,4.80
2018-07-31T16:31:05.264Z,4.95
2018-07-31T16:33:34.949Z,4.75
2018-07-31T16:36:03.823Z,5.90
2018-07-31T16:38:32.592Z,7.42
2018-07-31T16:41:01.288Z,6.20
2018-07-31T16:43:29.958Z,6.08
2018-07-31T16:45:59.752Z,5.67
2018-07-31T16:48:28.850Z,7.47
2018-07-31T16:50:57.585Z,5.90
2018-07-31T16:53:26.303Z,5.30
2018-07-31T16:55:55.169Z,6.15
2018-07-31T16:58:23.840Z,5.95
2018-07-31T17:00:52.628Z,5.15
2018-07-31T17:03:21.407Z,5.80
2018-07-31T17:05:50.015Z,5.63
2018-07-31T17:08:19.178Z,6.20
2018-07-31T17:10:48.101Z,6.50
2018-07-31T17:13:17.045Z,6.20
2018-07-31T17:15:45.899Z,6.72
2018-07-31T17:18:14.825Z,6.30
2018-07-31T17:20:43.478Z,6.00
2018-07-31T17:23:12.126Z,5.95
2018-07-31T17:25:40.885Z,6.20
2018-07-31T17:28:09.626Z,6.17
2018-07-31T17:30:38.504Z,6.30
2018-07-31T17:33:07.078Z,6.33
2018-07-31T17:35:35.845Z,8.15
2018-07-31T17:38:04.585Z,7.87
2018-07-31T17:40:33.615Z,7.62
2018-07-31T17:43:02.473Z,7.85
2018-07-31T17:45:31.363Z,7.05
2018-07-31T17:48:00.203Z,7.25
2018-07-31T17:50:28.915Z,6.80
2018-07-31T17:52:57.870Z,7.58
2018-07-31T17:55:26.549Z,6.83
2018-07-31T17:57:55.237Z,7.25
2018-07-31T18:00:23.926Z,7.60
2018-07-31T18:02:52.605Z,7.25
2018-07-31T18:05:22.268Z,6.62
2018-07-31T18:07:50.962Z,7.70
2018-07-31T18:10:19.671Z,6.97
2018-07-31T18:12:48.474Z,7.90
2018-07-31T18:15:19.140Z,7.37
2018-07-31T18:17:47.943Z,7.40
2018-07-31T18:20:16.856Z,7.55
2018-07-31T18:22:45.966Z,7.37
2018-07-31T18:25:14.731Z,8.33
2018-07-31T18:27:43.417Z,7.87
2018-07-31T18:30:12.302Z,8.08
2018-07-31T18:32:41.184Z,9.77
2018-07-31T18:35:09.985Z,8.30
2018-07-31T18:37:39.006Z,7.92
2018-07-31T18:40:07.945Z,8.03
2018-07-31T18:42:36.743Z,8.38
2018-07-31T18:45:07.081Z,7.77
2018-07-31T18:47:35.731Z,7.57
2018-07-31T18:50:04.837Z,8.10
2018-07-31T18:52:33.801Z,8.45
2018-07-31T18:55:02.563Z,7.85
2018-07-31T18:57:32.515Z,8.40
2018-07-31T19:00:01.419Z,8.03
2018-07-31T19:02:30.219Z,9.03
2018-07-31T19:04:58.955Z,8.83
2018-07-31T19:07:27.745Z,8.97
2018-07-31T19:09:56.419Z,8.53
2018-07-31T19:12:25.099Z,9.00
2018-07-31T19:14:54.077Z,8.20
2018-07-31T19:17:22.801Z,8.18
2018-07-31T19:19:51.500Z,8.70
2018-07-31T19:22:20.115Z,8.33
2018-07-31T19:24:48.843Z,7.60
2018-07-31T19:27:17.463Z,7.78
2018-07-31T19:29:46.074Z,10.30
2018-07-31T19:32:14.950Z,8.13
2018-07-31T19:34:43.952Z,8.07
2018-07-31T19:37:12.615Z,8.10
2018-07-31T19:39:41.869Z,8.30
2018-07-31T19:42:11.553Z,8.03
2018-07-31T19:44:40.167Z,8.70
2018-07-31T19:47:09.510Z,8.73
2018-07-31T19:49:39.027Z,9.13
2018-07-31T19:52:07.959Z,8.40
2018-07-31T19:54:38.195Z,7.95
2018-07-31T19:57:07.002Z,8.10
2018-07-31T19:59:35.784Z,7.95
2018-07-31T20:02:06.871Z,8.80
2018-07-31T20:04:35.832Z,8.65
2018-07-31T20:07:04.622Z,8.60
2018-07-31T20:09:33.411Z,8.20
2018-07-31T20:12:02.099Z,8.48
2018-07-31T20:14:30.820Z,8.17
2018-07-31T20:16:59.566Z,10.18
2018-07-31T20:19:28.305Z,9.18
2018-07-31T20:21:57.005Z,8.63
2018-07-31T20:24:26.137Z,8.58
2018-07-31T20:26:54.799Z,8.53
2018-07-31T20:29:23.705Z,8.68
2018-07-31T20:31:55.134Z,8.90
2018-07-31T20:34:23.834Z,8.63
2018-07-31T20:36:52.574Z,8.68
2018-07-31T20:39:21.221Z,8.45
2018-07-31T20:41:49.979Z,8.53
2018-07-31T20:44:19.642Z,8.70
2018-07-31T20:46:48.614Z,8.48
2018-07-31T20:49:17.321Z,8.28
2018-07-31T20:51:46.048Z,8.35
2018-07-31T20:54:14.867Z,8.33
2018-07-31T20:56:43.761Z,7.92
2018-07-31T20:59:12.417Z,8.60
2018-07-31T21:01:41.894Z,8.55
2018-07-31T21:04:10.567Z,8.68
2018-07-31T21:06:39.344Z,8.40
2018-07-31T21:09:12.911Z,8.43
2018-07-31T21:11:41.697Z,8.53
2018-07-31T21:14:11.550Z,8.40
2018-07-31T21:16:40.404Z,8.45
2018-07-31T21:19:10.974Z,8.00
2018-07-31T21:21:39.792Z,8.30
2018-07-31T21:24:10.126Z,8.70
2018-07-31T21:26:38.949Z,8.88
2018-07-31T21:29:08.036Z,8.65
2018-07-31T21:31:36.838Z,8.53
2018-07-31T21:34:07.216Z,8.40
2018-07-31T21:36:35.990Z,8.60
2018-07-31T21:39:08.063Z,8.53
2018-07-31T21:41:37.033Z,8.53
2018-07-31T21:44:05.743Z,8.75
2018-07-31T21:46:34.464Z,8.45
2018-07-31T21:49:04.092Z,9.40
2018-07-31T21:51:32.816Z,8.88
2018-07-31T21:54:01.603Z,8.90
2018-07-31T21:56:30.361Z,9.17
2018-07-31T21:58:59.002Z,9.15
2018-07-31T22:01:27.706Z,8.75
2018-07-31T22:03:57.012Z,9.13
2018-07-31T22:06:25.705Z,9.10
2018-07-31T22:08:54.491Z,8.85
2018-07-31T22:11:25.429Z,9.50
2018-07-31T22:13:54.837Z,9.70
2018-07-31T22:16:23.530Z,11.22
2018-07-31T22:18:52.355Z,13.22
2018-07-31T22:21:21.057Z,14.63
2018-07-31T22:23:49.647Z,13.80
2018-07-31T22:26:18.398Z,14.13
2018-07-31T22:28:47.083Z,13.90
2018-07-31T22:31:17.284Z,13.83
2018-07-31T22:33:46.082Z,14.28
2018-07-31T22:36:16.111Z,13.95
2018-07-31T22:38:45.239Z,12.43
2018-07-31T22:41:14.040Z,13.35
2018-07-31T22:43:42.783Z,15.20
2018-07-31T22:46:11.507Z,12.53
2018-07-31T22:48:41.703Z,10.58
2018-07-31T22:51:10.458Z,11.10
2018-07-31T22:53:39.154Z,10.53
2018-07-31T22:56:07.870Z,10.37
2018-07-31T22:58:36.532Z,9.78
2018-07-31T23:01:05.438Z,10.85
2018-07-31T23:03:34.129Z,10.30
2018-07-31T23:06:02.822Z,10.35
2018-07-31T23:08:31.448Z,10.80
2018-07-31T23:11:00.117Z,10.55
2018-07-31T23:13:28.847Z,9.83
2018-07-31T23:15:57.569Z,10.25
2018-07-31T23:18:26.301Z,10.45
2018-07-31T23:20:55.078Z,10.28
2018-07-31T23:23:23.854Z,9.93
2018-07-31T23:25:52.735Z,10.00
2018-07-31T23:28:21.562Z,9.68
2018-07-31T23:30:50.410Z,10.30
2018-07-31T23:33:19.071Z,9.90
2018-07-31T23:35:47.882Z,9.90
2018-07-31T23:38:16.609Z,10.53
2018-07-31T23:40:45.423Z,10.23
2018-07-31T23:43:14.214Z,10.30
2018-07-31T23:45:42.978Z,10.13
2018-07-31T23:48:11.825Z,10.20
2018-07-31T23:50:40.473Z,9.87
2018-07-31T23:53:09.199Z,9.68
2018-07-31T23:55:37.868Z,10.27
2018-07-31T23:58:08.446Z,9.70
